Time;durP1;ratioP1;P1;durP2;ratioP2;P2;SDS_P1;SDS_P2;PMS_P1;PMS_P2;Temp;Humidity;BMP_temperature;BMP_pressure;BME280_temperature;BME280_humidity;BME280_pressure;Samples;Min_cycle;Max_cycle;Signal;HPM_P1;HPM_P2
2024/02/15 00:01:30;;;;;;;5.43;3.93;;;9.30;19.40;;;;;;5011565;28;20422;-68
2024/02/15 00:03:57;;;;;;;5.73;3.33;;;9.30;19.30;;;;;;5011470;28;20172;-68
2024/02/15 00:06:23;;;;;;;5.73;3.20;;;9.40;18.90;;;;;;5011625;28;20195;-68
2024/02/15 00:08:50;;;;;;;5.20;3.27;;;9.30;18.90;;;;;;5011249;28;20415;-68
2024/02/15 00:11:15;;;;;;;6.20;3.07;;;9.40;18.70;;;;;;5009857;28;20465;-68
2024/02/15 00:13:41;;;;;;;5.60;3.50;;;9.40;18.40;;;;;;5011537;28;20423;-67
2024/02/15 00:16:06;;;;;;;6.63;3.80;;;9.40;18.70;;;;;;5011372;28;20562;-68
2024/02/15 00:18:32;;;;;;;3.70;2.40;;;9.40;18.70;;;;;;5011132;28;20618;-68
2024/02/15 00:20:59;;;;;;;5.60;2.27;;;9.40;18.70;;;;;;5010891;28;20289;-68
2024/02/15 00:23:25;;;;;;;4.43;2.70;;;9.40;18.20;;;;;;5011196;28;20620;-68
2024/02/15 00:25:51;;;;;;;5.33;2.70;;;9.40;19.30;;;;;;5011175;28;20426;-68
2024/02/15 00:28:17;;;;;;;9.37;3.37;;;9.50;18.80;;;;;;5011225;28;20670;-69
2024/02/15 00:30:42;;;;;;;5.60;2.50;;;9.50;18.00;;;;;;5010773;28;20192;-68
2024/02/15 00:33:08;;;;;;;3.53;2.50;;;9.40;18.70;;;;;;5011022;28;20433;-68
2024/02/15 00:35:33;;;;;;;4.77;2.37;;;9.40;18.70;;;;;;5011130;28;20179;-68
2024/02/15 00:37:59;;;;;;;3.33;1.97;;;9.40;18.10;;;;;;5011204;28;20460;-68
2024/02/15 00:40:25;;;;;;;6.20;2.87;;;9.40;18.40;;;;;;5010828;28;20207;-68
2024/02/15 00:42:50;;;;;;;4.20;2.90;;;9.50;17.70;;;;;;5010893;28;20470;-68
2024/02/15 00:45:16;;;;;;;4.87;3.40;;;9.50;18.00;;;;;;5010970;28;20176;-69
2024/02/15 00:47:42;;;;;;;4.93;2.30;;;9.50;18.80;;;;;;5011046;28;20713;-69
2024/02/15 00:50:09;;;;;;;3.83;2.10;;;9.50;17.70;;;;;;5010475;28;20203;-69
2024/02/15 00:52:35;;;;;;;5.30;2.67;;;9.50;17.80;;;;;;5011166;28;20413;-69
2024/02/15 00:55:00;;;;;;;4.00;1.93;;;9.60;17.30;;;;;;5010886;28;20441;-69
2024/02/15 00:57:26;;;;;;;4.40;2.70;;;9.60;16.70;;;;;;5010957;28;20203;-69
2024/02/15 00:59:52;;;;;;;5.53;1.90;;;9.60;16.80;;;;;;5010563;28;20242;-69
2024/02/15 01:02:17;;;;;;;4.03;2.50;;;9.70;16.70;;;;;;5009789;28;20470;-69
2024/02/15 01:04:45;;;;;;;5.50;2.47;;;9.70;16.10;;;;;;5014090;28;20179;-69
2024/02/15 01:07:11;;;;;;;4.77;2.77;;;9.70;16.20;;;;;;5014876;28;20805;-72
2024/02/15 01:09:36;;;;;;;3.57;2.00;;;9.60;16.20;;;;;;5013331;28;20431;-70
2024/02/15 01:12:03;;;;;;;3.83;1.83;;;9.60;16.40;;;;;;5014759;28;20266;-70
2024/02/15 01:14:30;;;;;;;3.30;1.83;;;9.50;16.40;;;;;;5014831;28;20369;-70
2024/02/15 01:16:56;;;;;;;4.77;2.67;;;9.50;17.00;;;;;;5014719;28;20922;-71
2024/02/15 01:19:22;;;;;;;6.57;2.57;;;9.50;17.20;;;;;;5014474;28;20453;-72
2024/02/15 01:21:47;;;;;;;3.27;2.20;;;9.40;16.90;;;;;;5015867;28;20442;-72
2024/02/15 01:24:13;;;;;;;5.60;2.50;;;9.40;17.10;;;;;;5015013;28;20191;-74
2024/02/15 01:26:38;;;;;;;3.43;1.60;;;9.30;17.60;;;;;;5014654;28;20682;-70
2024/02/15 01:29:04;;;;;;;2.87;1.67;;;9.20;17.20;;;;;;5014506;28;20538;-71
2024/02/15 01:31:29;;;;;;;4.17;2.23;;;9.00;18.40;;;;;;5013471;28;20180;-71
2024/02/15 01:33:55;;;;;;;2.70;1.87;;;8.90;19.70;;;;;;5013386;28;20188;-70
2024/02/15 01:36:21;;;;;;;4.63;2.60;;;8.80;19.90;;;;;;5015376;28;20567;-70
2024/02/15 01:38:46;;;;;;;5.27;2.40;;;8.60;21.70;;;;;;5014938;28;20195;-71
2024/02/15 01:41:12;;;;;;;3.80;2.60;;;8.50;23.00;;;;;;5014774;28;20269;-71
2024/02/15 01:43:38;;;;;;;4.93;2.30;;;8.40;24.80;;;;;;5015128;28;20313;-71
2024/02/15 01:46:10;;;;;;;2.80;1.80;;;8.30;26.40;;;;;;5015220;28;20190;-71
2024/02/15 01:48:40;;;;;;;4.17;2.83;;;8.20;26.30;;;;;;5014551;28;20241;-71
2024/02/15 01:51:07;;;;;;;3.40;2.03;;;8.20;26.90;;;;;;5014521;28;20459;-70
2024/02/15 01:53:34;;;;;;;2.70;2.00;;;8.10;27.40;;;;;;5029035;28;20426;-69
2024/02/15 01:56:00;;;;;;;3.80;2.17;;;8.10;27.60;;;;;;5014150;28;20436;-69
2024/02/15 01:58:27;;;;;;;4.90;2.37;;;8.10;28.00;;;;;;5013620;28;20429;-69
2024/02/15 02:00:56;;;;;;;3.80;1.83;;;8.00;27.90;;;;;;5013642;28;20206;-71
2024/02/15 02:03:21;;;;;;;5.73;1.67;;;8.00;28.00;;;;;;5013716;28;20991;-68
2024/02/15 02:05:47;;;;;;;3.00;1.97;;;7.90;28.70;;;;;;5013905;28;20422;-69
2024/02/15 02:08:13;;;;;;;2.80;1.57;;;7.80;29.30;;;;;;5013502;28;20202;-68
2024/02/15 02:10:42;;;;;;;4.70;2.00;;;7.80;30.00;;;;;;5013355;28;20216;-68
2024/02/15 02:13:09;;;;;;;5.20;1.73;;;7.80;29.50;;;;;;5013610;28;20721;-69
2024/02/15 02:15:36;;;;;;;3.20;1.90;;;7.80;30.00;;;;;;5013291;28;20435;-69
2024/02/15 02:18:03;;;;;;;4.60;2.20;;;7.80;30.10;;;;;;5013387;28;20890;-69
2024/02/15 02:20:28;;;;;;;3.97;1.77;;;7.70;30.00;;;;;;5013689;28;20442;-69
2024/02/15 02:23:07;;;;;;;3.87;2.23;;;7.70;30.00;;;;;;5013370;28;20563;-69
2024/02/15 02:25:33;;;;;;;5.53;2.23;;;7.70;29.80;;;;;;5013335;28;20181;-69
2024/02/15 02:27:59;;;;;;;4.10;1.80;;;7.60;30.00;;;;;;5013304;28;20422;-70
2024/02/15 02:30:29;;;;;;;3.60;1.93;;;7.50;29.90;;;;;;5013117;28;20451;-69
2024/02/15 02:32:58;;;;;;;3.10;1.63;;;7.50;29.90;;;;;;5013358;28;20512;-69
2024/02/15 02:35:25;;;;;;;2.50;1.30;;;7.40;30.00;;;;;;5013071;28;20424;-69
2024/02/15 02:37:52;;;;;;;15.53;2.00;;;7.30;30.70;;;;;;5012942;28;20417;-69
2024/02/15 02:40:18;;;;;;;4.33;1.87;;;7.30;31.20;;;;;;5012871;28;20440;-69
2024/02/15 02:42:55;;;;;;;3.03;1.93;;;7.20;31.80;;;;;;5013157;28;20468;-68
2024/02/15 02:45:25;;;;;;;4.60;2.07;;;7.10;33.20;;;;;;5012944;28;20275;-69
2024/02/15 02:47:54;;;;;;;3.00;1.97;;;7.10;33.80;;;;;;5011425;28;20767;-68
2024/02/15 02:50:21;;;;;;;4.67;2.03;;;7.00;33.80;;;;;;5012713;28;20857;-67
2024/02/15 02:52:48;;;;;;;3.77;2.00;;;6.90;34.50;;;;;;5012939;28;20552;-69
2024/02/15 02:55:14;;;;;;;4.63;2.00;;;6.90;35.30;;;;;;5012681;28;20452;-68
2024/02/15 02:57:39;;;;;;;3.73;1.73;;;6.80;34.50;;;;;;5012980;28;20462;-68
2024/02/15 03:00:12;;;;;;;4.70;1.30;;;6.80;35.90;;;;;;5012767;28;20527;-67
2024/02/15 03:02:39;;;;;;;4.03;2.50;;;6.70;35.70;;;;;;5012553;28;20207;-69
2024/02/15 03:05:06;;;;;;;4.33;2.20;;;6.60;34.30;;;;;;5012629;28;20920;-68
2024/02/15 03:07:35;;;;;;;2.50;1.60;;;6.60;35.80;;;;;;5012729;28;20507;-68
2024/02/15 03:10:02;;;;;;;2.67;1.27;;;6.50;35.90;;;;;;5012336;28;20435;-68
2024/02/15 03:12:29;;;;;;;3.20;1.97;;;6.40;35.60;;;;;;5012440;28;20929;-69
2024/02/15 03:14:55;;;;;;;2.87;1.60;;;6.40;37.00;;;;;;5012723;28;20419;-68
2024/02/15 03:17:21;;;;;;;4.00;2.20;;;6.40;37.30;;;;;;5012491;28;20465;-69
2024/02/15 03:19:48;;;;;;;4.03;1.87;;;6.40;37.40;;;;;;5012185;28;20207;-68
2024/02/15 03:22:14;;;;;;;3.13;2.00;;;6.40;37.30;;;;;;5012011;28;20502;-69
2024/02/15 03:24:40;;;;;;;3.53;2.00;;;6.40;37.50;;;;;;5012639;28;21079;-68
2024/02/15 03:27:06;;;;;;;3.03;1.47;;;6.40;38.00;;;;;;5011676;28;20411;-69
2024/02/15 03:29:31;;;;;;;4.17;1.70;;;6.40;38.70;;;;;;5012117;28;20242;-68
2024/02/15 03:31:59;;;;;;;3.17;1.90;;;6.40;38.70;;;;;;5012097;28;20196;-68
2024/02/15 03:34:25;;;;;;;4.43;2.37;;;6.40;38.80;;;;;;5012216;28;20422;-68
2024/02/15 03:36:53;;;;;;;4.13;2.33;;;6.50;39.10;;;;;;5010820;28;20185;-68
2024/02/15 03:39:19;;;;;;;3.57;1.87;;;6.50;39.40;;;;;;5011936;28;20442;-68
2024/02/15 03:41:45;;;;;;;3.90;2.50;;;6.50;38.30;;;;;;5012088;28;20786;-68
2024/02/15 03:44:12;;;;;;;3.20;1.97;;;6.50;38.10;;;;;;5012470;28;20415;-68
2024/02/15 03:46:37;;;;;;;2.40;1.70;;;6.50;37.20;;;;;;5012212;28;20186;-69
2024/02/15 03:49:03;;;;;;;2.67;2.07;;;6.50;37.20;;;;;;5011593;28;20502;-68
2024/02/15 03:51:28;;;;;;;2.30;1.63;;;6.50;37.60;;;;;;5011749;28;20177;-69
2024/02/15 03:53:54;;;;;;;3.50;2.23;;;6.40;37.10;;;;;;5011928;28;20592;-68
2024/02/15 03:56:21;;;;;;;4.50;1.93;;;6.40;37.20;;;;;;5011890;28;20227;-69
2024/02/15 03:58:46;;;;;;;3.43;2.03;;;6.40;37.60;;;;;;5011733;28;20211;-67
2024/02/15 04:01:15;;;;;;;2.97;1.60;;;6.40;36.50;;;;;;5011447;28;20473;-68
2024/02/15 04:03:40;;;;;;;3.67;1.77;;;6.30;37.10;;;;;;5011672;28;20674;-68
2024/02/15 04:06:06;;;;;;;3.37;1.90;;;6.30;37.40;;;;;;5011623;28;20419;-68
2024/02/15 04:08:32;;;;;;;4.47;2.53;;;6.30;36.30;;;;;;5011425;28;20187;-69
2024/02/15 04:10:57;;;;;;;2.53;1.87;;;6.30;37.20;;;;;;5011531;28;20206;-69
2024/02/15 04:13:24;;;;;;;3.00;2.10;;;6.30;39.20;;;;;;5011436;28;20842;-68
2024/02/15 04:15:50;;;;;;;3.73;1.87;;;6.40;39.30;;;;;;5011584;28;20740;-68
2024/02/15 04:18:16;;;;;;;3.40;2.40;;;6.50;39.30;;;;;;5011514;28;20921;-69
2024/02/15 04:20:44;;;;;;;3.17;1.87;;;6.60;39.40;;;;;;5011377;28;20435;-69
2024/02/15 04:23:11;;;;;;;2.63;1.77;;;6.70;37.80;;;;;;5011411;28;20536;-69
2024/02/15 04:25:36;;;;;;;5.47;1.90;;;6.80;36.20;;;;;;5011273;28;20423;-68
2024/02/15 04:28:03;;;;;;;3.80;2.57;;;7.00;34.70;;;;;;5011157;28;20508;-68
2024/02/15 04:30:32;;;;;;;2.97;2.07;;;7.00;33.90;;;;;;5011252;28;20226;-69
2024/02/15 04:32:57;;;;;;;2.67;1.93;;;7.10;32.60;;;;;;5011207;28;20426;-68
2024/02/15 04:35:27;;;;;;;2.97;2.13;;;7.20;29.80;;;;;;5011220;28;20912;-68
2024/02/15 04:37:53;;;;;;;3.23;2.47;;;7.30;29.30;;;;;;5011131;28;20176;-68
2024/02/15 04:40:19;;;;;;;2.80;2.00;;;7.30;29.00;;;;;;5011107;28;20919;-69
2024/02/15 04:42:47;;;;;;;3.93;3.13;;;7.30;28.70;;;;;;5010784;28;20280;-69
2024/02/15 04:45:13;;;;;;;7.43;2.23;;;7.40;27.80;;;;;;5011061;28;20420;-69
2024/02/15 04:47:40;;;;;;;2.70;2.00;;;7.40;26.60;;;;;;5011238;28;20474;-69
2024/02/15 04:50:07;;;;;;;2.50;1.73;;;7.40;25.80;;;;;;5011100;28;20449;-70
2024/02/15 04:52:32;;;;;;;3.93;2.57;;;7.40;26.40;;;;;;5010862;28;20415;-68
2024/02/15 04:54:58;;;;;;;3.37;2.17;;;7.40;25.80;;;;;;5011154;28;20562;-68
2024/02/15 04:57:27;;;;;;;3.03;1.90;;;7.40;25.80;;;;;;5011319;28;20180;-69
2024/02/15 04:59:53;;;;;;;4.93;2.37;;;7.40;25.20;;;;;;5010961;28;20459;-68
2024/02/15 05:02:19;;;;;;;4.10;2.27;;;7.30;25.80;;;;;;5010986;28;20840;-69
2024/02/15 05:04:45;;;;;;;3.90;1.60;;;7.30;26.10;;;;;;5011292;28;20413;-69
2024/02/15 05:07:11;;;;;;;4.70;2.50;;;7.40;25.80;;;;;;5010971;28;20183;-68
2024/02/15 05:09:36;;;;;;;4.57;2.30;;;7.40;25.80;;;;;;5010588;28;20193;-68
2024/02/15 05:12:02;;;;;;;3.30;2.07;;;7.40;25.00;;;;;;5025741;28;20243;-68
2024/02/15 05:14:28;;;;;;;3.40;2.20;;;7.40;25.30;;;;;;5010961;28;20186;-68
2024/02/15 05:16:54;;;;;;;2.90;2.00;;;7.30;25.30;;;;;;5010866;28;20572;-68
2024/02/15 05:19:19;;;;;;;2.43;1.23;;;7.40;25.00;;;;;;5010495;28;20521;-69
2024/02/15 05:21:45;;;;;;;3.47;2.20;;;7.30;24.80;;;;;;5010387;28;20191;-68
2024/02/15 05:24:15;;;;;;;4.13;2.03;;;7.30;25.40;;;;;;5010084;28;20220;-70
2024/02/15 05:26:48;;;;;;;4.43;2.60;;;7.30;25.70;;;;;;5010569;28;20966;-70
2024/02/15 05:29:14;;;;;;;9.20;3.37;;;7.20;25.70;;;;;;5010538;28;20433;-70
2024/02/15 05:31:40;;;;;;;5.83;1.97;;;7.20;25.70;;;;;;5010587;28;20447;-69
2024/02/15 05:34:11;;;;;;;6.97;2.77;;;7.10;26.20;;;;;;5010647;28;20921;-69
2024/02/15 05:36:37;;;;;;;3.13;2.23;;;7.10;25.60;;;;;;5010551;28;20563;-70
2024/02/15 05:39:04;;;;;;;3.90;2.33;;;7.00;26.50;;;;;;5010146;28;20424;-69
2024/02/15 05:41:32;;;;;;;4.00;2.23;;;7.00;27.30;;;;;;5010014;28;20424;-69
2024/02/15 05:43:58;;;;;;;4.57;2.50;;;6.90;27.10;;;;;;5009964;28;20557;-70
2024/02/15 05:46:24;;;;;;;5.07;2.97;;;6.90;26.60;;;;;;5010770;28;20915;-69
2024/02/15 05:48:49;;;;;;;7.63;2.70;;;6.80;28.40;;;;;;5010778;28;20414;-68
2024/02/15 05:51:15;;;;;;;5.07;2.70;;;6.70;28.00;;;;;;5014443;28;20695;-68
2024/02/15 05:53:41;;;;;;;5.03;2.10;;;6.70;29.20;;;;;;5014975;28;20536;-67
2024/02/15 05:56:08;;;;;;;4.73;2.33;;;6.60;29.70;;;;;;5014250;28;20427;-68
2024/02/15 05:58:34;;;;;;;5.27;2.50;;;6.60;29.40;;;;;;5014621;28;20526;-68
2024/02/15 06:01:02;;;;;;;3.60;2.23;;;6.60;29.80;;;;;;5013983;28;20929;-67
2024/02/15 06:03:34;;;;;;;6.00;3.20;;;6.60;30.00;;;;;;5014107;28;20847;-69
2024/02/15 06:06:02;;;;;;;7.00;3.23;;;6.50;31.40;;;;;;5013992;28;20545;-68
2024/02/15 06:08:30;;;;;;;3.97;2.80;;;6.50;31.70;;;;;;5013397;28;20414;-69
2024/02/15 06:10:56;;;;;;;4.10;2.63;;;6.40;32.70;;;;;;5013225;28;20443;-69
2024/02/15 06:13:26;;;;;;;4.23;2.20;;;6.40;33.70;;;;;;5013544;28;20422;-68
2024/02/15 06:15:54;;;;;;;4.57;3.03;;;6.30;34.10;;;;;;5013632;28;20184;-69
2024/02/15 06:18:25;;;;;;;4.07;2.67;;;6.30;34.20;;;;;;5013409;28;20419;-68
2024/02/15 06:20:53;;;;;;;4.10;2.63;;;6.30;34.00;;;;;;5013236;28;20443;-69
2024/02/15 06:23:20;;;;;;;6.67;3.47;;;6.40;34.10;;;;;;5012799;28;20470;-70
2024/02/15 06:25:52;;;;;;;4.13;2.60;;;6.40;34.10;;;;;;5013664;28;20413;-70
2024/02/15 06:41:58;;;;;;;4.20;2.70;;;6.30;34.00;;;;;;5013076;28;21246;-69
2024/02/15 06:44:24;;;;;;;4.13;2.80;;;6.30;34.00;;;;;;5013272;28;20495;-69
2024/02/15 06:46:50;;;;;;;9.03;2.43;;;6.30;34.00;;;;;;5013738;28;20251;-69
2024/02/15 06:49:16;;;;;;;4.33;2.67;;;6.30;34.00;;;;;;5013103;28;20207;-70
2024/02/15 06:51:42;;;;;;;5.67;2.70;;;6.20;34.00;;;;;;5011728;28;20469;-70
2024/02/15 06:54:07;;;;;;;3.07;2.17;;;6.20;34.00;;;;;;5013411;28;20956;-70
2024/02/15 06:56:37;;;;;;;3.97;3.10;;;6.20;35.50;;;;;;5013066;28;20211;-70
2024/02/15 06:59:03;;;;;;;5.43;2.57;;;6.20;35.80;;;;;;5012956;28;20235;-69
2024/02/15 07:01:28;;;;;;;5.27;3.10;;;6.20;35.20;;;;;;5011918;28;20434;-70
2024/02/15 07:03:55;;;;;;;4.03;2.63;;;6.30;35.80;;;;;;5014342;28;20287;-70
2024/02/15 07:06:21;;;;;;;4.30;3.10;;;6.40;35.20;;;;;;5013674;28;20184;-70
2024/02/15 07:08:47;;;;;;;4.87;2.97;;;6.40;36.60;;;;;;5013333;28;20413;-70
2024/02/15 07:11:13;;;;;;;8.13;2.93;;;6.50;36.10;;;;;;5012673;28;20455;-70
2024/02/15 07:13:39;;;;;;;5.87;2.60;;;6.60;35.00;;;;;;5012911;28;20910;-70
2024/02/15 07:16:08;;;;;;;4.90;2.50;;;6.70;34.40;;;;;;5012813;28;20209;-70
2024/02/15 07:18:33;;;;;;;3.53;2.33;;;6.90;33.10;;;;;;5028063;28;20215;-69
2024/02/15 07:20:59;;;;;;;4.73;3.40;;;7.00;33.10;;;;;;5012322;28;20479;-70
2024/02/15 07:23:25;;;;;;;5.30;3.27;;;;;;;;;;5012775;28;20202;-71
2024/02/15 07:25:53;;;;;;;4.80;3.13;;;;;;;;;;5012626;28;20596;-70
2024/02/15 07:28:20;;;;;;;4.10;2.47;;;7.70;43.40;;;;;;5012495;28;20442;-70
2024/02/15 07:30:48;;;;;;;4.07;3.07;;;7.60;40.40;;;;;;5011835;28;20517;-70
2024/02/15 07:33:17;;;;;;;6.63;4.00;;;;;;;;;;5011633;28;20568;-70
2024/02/15 07:35:43;;;;;;;4.40;3.43;;;;;;;;;;5011915;28;20463;-71
2024/02/15 07:38:10;;;;;;;6.13;3.50;;;;;;;;;;5012569;28;20448;-68
2024/02/15 07:40:35;;;;;;;12.43;3.60;;;8.10;47.60;;;;;;5011879;28;20503;-69
2024/02/15 07:43:03;;;;;;;4.73;3.60;;;8.10;40.40;;;;;;5005483;28;20580;-70
2024/02/15 07:45:29;;;;;;;5.70;3.93;;;8.20;42.50;;;;;;5008545;28;20183;-68
2024/02/15 07:47:55;;;;;;;4.20;2.67;;;;;;;;;;5008633;28;20512;-68
2024/02/15 07:50:22;;;;;;;7.60;4.20;;;;;;;;;;5007865;28;20612;-70
2024/02/15 07:52:49;;;;;;;4.17;2.87;;;8.70;41.00;;;;;;5007242;28;21019;-70
2024/02/15 07:55:15;;;;;;;6.23;4.00;;;;;;;;;;5006141;28;20565;-70
2024/02/15 07:57:40;;;;;;;4.60;2.50;;;9.10;35.70;;;;;;5006926;28;20434;-69
2024/02/15 08:00:11;;;;;;;4.53;2.60;;;;;;;;;;5006946;28;20466;-69
2024/02/15 08:02:42;;;;;;;3.73;2.97;;;;;;;;;;5011330;28;20243;-70
2024/02/15 08:05:10;;;;;;;3.70;2.73;;;;;;;;;;5009548;28;20431;-69
2024/02/15 08:07:41;;;;;;;4.47;2.60;;;;;;;;;;5006853;28;20427;-70
2024/02/15 08:10:12;;;;;;;3.40;2.37;;;9.90;35.40;;;;;;5005605;28;20481;-70
2024/02/15 08:12:46;;;;;;;4.97;2.70;;;10.10;33.20;;;;;;5012252;28;20434;-70
2024/02/15 08:15:12;;;;;;;3.30;2.03;;;;;;;;;;5007821;28;20439;-70
2024/02/15 08:17:46;;;;;;;4.50;2.60;;;;;;;;;;5006973;28;20431;-69
2024/02/15 08:20:12;;;;;;;4.57;2.47;;;;;;;;;;5006341;28;20458;-69
2024/02/15 08:22:39;;;;;;;5.63;2.23;;;;;;;;;;5007199;28;20466;-74
2024/02/15 08:25:10;;;;;;;4.10;2.50;;;;;;;;;;5006787;28;20451;-71
2024/02/15 08:27:40;;;;;;;6.90;2.30;;;;;;;;;;5009760;28;20477;-70
2024/02/15 08:30:08;;;;;;;4.80;2.33;;;;;;;;;;5009132;28;20435;-73
2024/02/15 08:32:34;;;;;;;3.37;2.00;;;;;;;;;;5018546;28;20434;-70
2024/02/15 08:35:00;;;;;;;4.73;2.27;;;11.30;22.00;;;;;;5020471;28;20532;-69
2024/02/15 08:37:25;;;;;;;6.23;2.27;;;;;;;;;;5009826;28;20438;-71
2024/02/15 08:39:52;;;;;;;3.57;2.20;;;12.00;1.00;;;;;;5010125;28;20230;-69
2024/02/15 08:42:22;;;;;;;3.93;2.33;;;12.20;1.00;;;;;;5010482;28;20472;-72
2024/02/15 08:44:48;;;;;;;3.53;2.40;;;12.30;1.00;;;;;;5010599;28;20424;-71
2024/02/15 08:47:13;;;;;;;4.30;2.17;;;12.50;1.00;;;;;;5019328;28;20715;-69
2024/02/15 08:49:40;;;;;;;3.30;2.50;;;12.50;1.00;;;;;;4975309;28;1046713;-69
2024/02/15 08:52:07;;;;;;;3.43;2.30;;;12.60;1.00;;;;;;5011540;28;20182;-69
2024/02/15 08:54:33;;;;;;;3.60;2.03;;;12.70;1.00;;;;;;5012355;28;20426;-73
2024/02/15 08:56:59;;;;;;;3.70;2.17;;;12.70;1.00;;;;;;5012580;28;20432;-69
2024/02/15 08:59:24;;;;;;;5.10;2.20;;;12.70;1.00;;;;;;5011051;28;20452;-68
2024/02/15 09:01:51;;;;;;;4.33;2.90;;;12.80;1.00;;;;;;5011819;28;20234;-71
2024/02/15 09:04:16;;;;;;;3.77;2.50;;;12.80;1.00;;;;;;5018174;28;20631;-69
2024/02/15 09:06:43;;;;;;;6.17;2.80;;;12.70;1.00;;;;;;5012403;28;20461;-70
2024/02/15 09:09:08;;;;;;;7.30;4.70;;;12.60;2.50;;;;;;5011249;28;20230;-69
2024/02/15 09:11:34;;;;;;;13.07;5.93;;;12.60;3.40;;;;;;5011509;28;20778;-70
2024/02/15 09:14:00;;;;;;;7.37;4.50;;;12.50;2.50;;;;;;5011505;28;20530;-70
2024/02/15 09:16:25;;;;;;;6.83;4.90;;;12.50;3.70;;;;;;5011638;28;20977;-69
2024/02/15 09:18:51;;;;;;;15.87;4.60;;;12.40;3.10;;;;;;5011066;28;20211;-69
2024/02/15 09:21:16;;;;;;;13.77;4.30;;;12.30;3.90;;;;;;5010952;28;20218;-70
2024/02/15 09:23:42;;;;;;;7.03;4.60;;;12.30;5.30;;;;;;5010832;28;20276;-70
2024/02/15 09:26:09;;;;;;;7.00;4.43;;;12.20;4.90;;;;;;5014639;28;20589;-70
2024/02/15 09:28:35;;;;;;;6.37;3.90;;;12.10;8.80;;;;;;5014799;28;20218;-70
2024/02/15 09:31:01;;;;;;;8.33;4.00;;;12.10;3.50;;;;;;5013360;28;20936;-70
2024/02/15 09:33:27;;;;;;;6.40;3.60;;;12.10;3.60;;;;;;5014760;28;20735;-70
2024/02/15 09:35:55;;;;;;;6.83;4.27;;;12.20;3.30;;;;;;5014888;28;20524;-70
2024/02/15 09:38:21;;;;;;;5.80;3.50;;;12.30;3.00;;;;;;5014596;28;20417;-70
2024/02/15 09:40:50;;;;;;;5.90;3.60;;;12.30;3.40;;;;;;5014624;28;20437;-70
2024/02/15 09:43:16;;;;;;;5.93;3.87;;;12.40;4.10;;;;;;5014878;28;20535;-69
2024/02/15 09:45:42;;;;;;;18.20;4.13;;;12.40;3.90;;;;;;5014631;28;20909;-70
2024/02/15 09:48:10;;;;;;;5.00;3.17;;;12.60;3.40;;;;;;5014593;28;20432;-69
2024/02/15 09:50:42;;;;;;;9.00;4.40;;;12.70;3.10;;;;;;5014776;28;20305;-69
2024/02/15 09:53:08;;;;;;;5.50;3.60;;;12.60;3.00;;;;;;5014529;28;20418;-69
2024/02/15 09:55:34;;;;;;;7.30;3.57;;;12.60;3.30;;;;;;5014642;28;20415;-68
2024/02/15 09:58:01;;;;;;;5.40;4.30;;;12.70;3.60;;;;;;5014241;28;20426;-69
2024/02/15 10:00:26;;;;;;;7.20;3.97;;;12.90;2.70;;;;;;5014316;28;20487;-69
2024/02/15 10:02:53;;;;;;;7.30;3.43;;;13.00;2.80;;;;;;5014184;28;20958;-68
2024/02/15 10:05:19;;;;;;;5.60;3.23;;;13.00;2.70;;;;;;5014208;28;20563;-68
2024/02/15 10:07:45;;;;;;;4.47;2.97;;;13.10;3.10;;;;;;5013981;28;20902;-69
2024/02/15 10:10:23;;;;;;;6.30;3.13;;;13.20;2.50;;;;;;5013888;28;20449;-69
2024/02/15 10:13:00;;;;;;;6.00;3.50;;;13.20;2.90;;;;;;5014065;28;20465;-70
2024/02/15 10:15:35;;;;;;;7.47;4.40;;;13.40;3.00;;;;;;5014130;28;20906;-69
2024/02/15 10:18:11;;;;;;;5.60;3.17;;;13.40;3.00;;;;;;5013880;28;20409;-69
2024/02/15 10:20:39;;;;;;;3.97;2.50;;;13.40;3.00;;;;;;5013763;28;20436;-70
2024/02/15 10:23:08;;;;;;;5.37;3.00;;;13.50;3.00;;;;;;5013972;28;20533;-70
2024/02/15 10:25:34;;;;;;;6.23;3.53;;;13.50;3.30;;;;;;5013838;28;20415;-69
2024/02/15 10:28:23;;;;;;;4.43;2.57;;;13.70;1.00;;;;;;5013604;28;20430;-71
2024/02/15 10:30:50;;;;;;;3.60;2.40;;;13.70;1.00;;;;;;5005727;28;20565;-69
2024/02/15 10:33:20;;;;;;;5.67;2.63;;;13.80;1.00;;;;;;5013657;28;20433;-69
2024/02/15 10:35:46;;;;;;;6.77;3.33;;;13.90;1.00;;;;;;5013621;28;20425;-69
2024/02/15 10:38:13;;;;;;;5.00;2.77;;;13.90;1.00;;;;;;5013542;28;20907;-69
2024/02/15 10:40:43;;;;;;;6.93;2.90;;;13.90;1.00;;;;;;5013254;28;20226;-70
2024/02/15 10:43:10;;;;;;;3.60;2.40;;;14.10;1.00;;;;;;5013488;28;20455;-69
2024/02/15 10:45:38;;;;;;;3.77;2.20;;;14.30;1.00;;;;;;5013281;28;20497;-69
2024/02/15 10:48:07;;;;;;;5.57;2.63;;;14.40;1.00;;;;;;5013243;28;20926;-71
2024/02/15 10:50:33;;;;;;;4.57;1.90;;;14.50;1.00;;;;;;5013171;28;20538;-71
2024/02/15 10:52:59;;;;;;;9.47;2.77;;;14.70;1.00;;;;;;5013523;28;20562;-69
2024/02/15 10:55:30;;;;;;;4.27;2.73;;;14.80;1.00;;;;;;5013524;28;20643;-71
2024/02/15 10:58:03;;;;;;;3.90;2.20;;;14.80;1.00;;;;;;5013189;28;20195;-69
2024/02/15 11:00:31;;;;;;;5.87;2.57;;;15.00;1.00;;;;;;5013399;28;20441;-68
2024/02/15 11:03:10;;;;;;;4.57;2.43;;;15.20;1.00;;;;;;5013398;28;20463;-70
2024/02/15 11:05:38;;;;;;;4.10;2.20;;;15.30;1.00;;;;;;5013227;28;20411;-70
2024/02/15 11:08:08;;;;;;;2.80;2.03;;;15.40;1.00;;;;;;5013062;28;20435;-70
2024/02/15 11:10:37;;;;;;;3.50;1.70;;;15.60;1.00;;;;;;5013128;28;20442;-70
2024/02/15 11:13:04;;;;;;;3.17;1.80;;;15.70;1.00;;;;;;5013010;28;20414;-69
2024/02/15 11:15:53;;;;;;;3.90;2.20;;;15.80;1.00;;;;;;5013043;28;20469;-69
2024/02/15 11:18:48;;;;;;;2.97;2.00;;;16.00;1.00;;;;;;5012789;28;20473;-69
2024/02/15 11:21:18;;;;;;;5.87;2.30;;;16.20;1.00;;;;;;5013056;28;20431;-69
2024/02/15 11:23:44;;;;;;;4.27;2.30;;;16.20;1.00;;;;;;5012773;28;20545;-69
2024/02/15 11:26:48;;;;;;;3.90;2.00;;;16.30;1.00;;;;;;5013123;28;20889;-70
2024/02/15 11:29:51;;;;;;;4.10;2.47;;;16.20;1.00;;;;;;5012473;28;20833;-69
2024/02/15 11:32:49;;;;;;;4.80;2.20;;;16.20;1.00;;;;;;5012806;28;20423;-68
2024/02/15 11:35:15;;;;;;;4.80;2.63;;;16.40;1.00;;;;;;5012880;28;20421;-69
2024/02/15 11:40:17;;;;;;;2.67;1.97;;;16.70;1.00;;;;;;5012417;28;20953;-69
2024/02/15 11:42:46;;;;;;;4.40;2.50;;;16.60;1.00;;;;;;5012813;28;20650;-69
2024/02/15 11:45:12;;;;;;;2.90;2.00;;;16.70;1.00;;;;;;5012459;28;20415;-70
2024/02/15 11:47:42;;;;;;;2.87;1.60;;;16.80;1.00;;;;;;5011890;28;20411;-70
2024/02/15 11:50:12;;;;;;;2.20;1.53;;;16.90;1.00;;;;;;5011686;28;20486;-70
2024/02/15 11:52:40;;;;;;;10.20;2.87;;;17.10;1.00;;;;;;5012310;28;20923;-70
2024/02/15 11:55:10;;;;;;;10.60;2.53;;;17.30;1.00;;;;;;5012191;28;20468;-70
2024/02/15 11:57:48;;;;;;;2.50;1.93;;;17.40;1.00;;;;;;5012305;28;20411;-70
2024/02/15 12:20:10;;;;;;;7.10;3.23;;;18.20;1.00;;;;;;5012169;28;20433;-69
2024/02/15 12:22:41;;;;;;;3.60;1.77;;;18.30;1.00;;;;;;5010895;28;20458;-70
2024/02/15 12:25:12;;;;;;;3.63;1.87;;;18.40;1.00;;;;;;5012036;28;20407;-70
2024/02/15 12:27:38;;;;;;;2.80;1.83;;;18.30;1.00;;;;;;5011741;28;20480;-70
2024/02/15 12:30:06;;;;;;;3.20;2.43;;;18.40;1.00;;;;;;5011422;28;20438;-71
2024/02/15 12:32:32;;;;;;;4.47;1.60;;;18.50;1.00;;;;;;5011539;28;20446;-69
2024/02/15 12:35:19;;;;;;;2.53;2.23;;;18.40;1.00;;;;;;5011885;28;20545;-70
2024/02/15 12:38:08;;;;;;;4.17;3.00;;;18.30;1.00;;;;;;5011403;28;20779;-69
2024/02/15 12:40:36;;;;;;;2.40;1.70;;;18.50;1.00;;;;;;5011300;28;20434;-70
2024/02/15 12:43:05;;;;;;;3.90;2.30;;;18.50;1.00;;;;;;5011622;28;20649;-69
2024/02/15 12:45:31;;;;;;;8.33;2.43;;;18.60;1.00;;;;;;5011685;28;20411;-69
2024/02/15 12:47:58;;;;;;;3.70;2.17;;;18.60;1.00;;;;;;5012070;28;20403;-69
2024/02/15 12:50:28;;;;;;;4.67;2.23;;;18.60;1.00;;;;;;5011529;28;20447;-69
2024/02/15 12:53:03;;;;;;;2.20;1.60;;;18.40;1.00;;;;;;5011707;28;20515;-69
2024/02/15 12:55:34;;;;;;;2.50;1.67;;;18.10;1.00;;;;;;5010321;28;20930;-69
2024/02/15 12:58:03;;;;;;;4.90;1.80;;;18.30;1.00;;;;;;5011364;28;20415;-69
2024/02/15 13:00:32;;;;;;;3.20;1.50;;;18.50;1.00;;;;;;5010477;28;20958;-70
2024/02/15 13:02:59;;;;;;;2.73;1.67;;;18.30;1.00;;;;;;5011506;28;20956;-70
2024/02/15 13:05:28;;;;;;;4.47;2.33;;;18.30;1.00;;;;;;5011499;28;20710;-70
2024/02/15 13:07:55;;;;;;;2.60;1.77;;;18.30;1.00;;;;;;5011478;28;20810;-70
2024/02/15 13:10:21;;;;;;;3.43;2.20;;;18.30;1.00;;;;;;5011419;28;20438;-70
2024/02/15 13:12:47;;;;;;;4.23;1.87;;;18.30;1.00;;;;;;5011857;28;20518;-70
2024/02/15 13:15:21;;;;;;;2.93;1.57;;;18.10;1.00;;;;;;5011583;28;20788;-69
2024/02/15 13:17:53;;;;;;;2.10;1.80;;;18.20;1.00;;;;;;5011937;28;20430;-69
2024/02/15 13:20:27;;;;;;;2.30;1.67;;;18.20;1.00;;;;;;5011337;28;20439;-68
2024/02/15 13:22:53;;;;;;;5.07;2.00;;;18.20;1.00;;;;;;5011230;28;20482;-68
2024/02/15 13:25:21;;;;;;;3.07;2.10;;;18.30;1.00;;;;;;5010141;28;20486;-70
2024/02/15 13:27:47;;;;;;;3.20;2.30;;;18.20;1.00;;;;;;5011342;28;20847;-70
2024/02/15 13:30:12;;;;;;;3.30;2.63;;;18.10;1.00;;;;;;5010580;28;20545;-70
2024/02/15 13:32:40;;;;;;;3.57;1.83;;;18.10;1.00;;;;;;5011300;28;20859;-70
2024/02/15 13:35:12;;;;;;;4.70;1.53;;;18.20;1.00;;;;;;5010225;28;20184;-68
2024/02/15 13:37:48;;;;;;;2.73;1.97;;;18.30;1.00;;;;;;5011417;28;20414;-69
2024/02/15 13:40:17;;;;;;;3.53;1.63;;;18.30;1.00;;;;;;5011234;28;20445;-69
2024/02/15 13:42:52;;;;;;;4.03;2.30;;;18.20;1.00;;;;;;5010949;28;20516;-68